createdAt,value
2018-05-02T00:00:14.112Z,12.20
2018-05-02T00:01:14.110Z,12.20
2018-05-02T00:02:14.109Z,12.00
2018-05-02T00:03:14.109Z,12.08
2018-05-02T00:04:14.108Z,11.96
2018-05-02T00:05:14.107Z,11.80
2018-05-02T00:06:14.106Z,11.80
2018-05-02T00:07:14.106Z,11.74
2018-05-02T00:08:14.104Z,11.76
2018-05-02T00:09:14.105Z,11.60
2018-05-02T00:10:14.104Z,11.67
2018-05-02T00:11:14.103Z,11.65
2018-05-02T00:12:14.101Z,11.58
2018-05-02T00:13:14.100Z,11.65
2018-05-02T00:14:14.100Z,11.73
2018-05-02T00:15:14.098Z,11.63
2018-05-02T00:16:14.096Z,11.63
2018-05-02T00:17:14.095Z,11.68
2018-05-02T00:18:14.095Z,11.76
2018-05-02T00:19:14.095Z,11.81
2018-05-02T00:20:14.093Z,11.81
2018-05-02T00:21:14.091Z,11.85
2018-05-02T00:22:14.090Z,11.89
2018-05-02T00:23:14.095Z,11.95
2018-05-02T00:24:14.091Z,11.91
2018-05-02T00:25:14.086Z,11.97
2018-05-02T00:26:14.087Z,12.00
2018-05-02T00:27:14.085Z,12.07
2018-05-02T00:28:14.085Z,12.03
2018-05-02T00:29:14.083Z,12.03
2018-05-02T00:30:14.084Z,11.96
2018-05-02T00:31:14.081Z,11.96
2018-05-02T00:32:14.079Z,11.93
2018-05-02T00:33:14.080Z,11.95
2018-05-02T00:34:14.078Z,11.81
2018-05-02T00:35:14.077Z,11.81
2018-05-02T00:36:14.078Z,11.86
2018-05-02T00:37:14.075Z,11.88
2018-05-02T00:38:14.073Z,11.85
2018-05-02T00:39:14.073Z,11.78
2018-05-02T00:40:14.071Z,11.88
2018-05-02T00:41:14.073Z,11.83
2018-05-02T00:42:14.071Z,11.89
2018-05-02T00:43:14.070Z,11.91
2018-05-02T00:44:14.068Z,11.88
2018-05-02T00:45:14.067Z,11.76
2018-05-02T00:46:14.066Z,11.91
2018-05-02T00:47:14.065Z,11.83
2018-05-02T00:48:14.067Z,11.88
2018-05-02T00:49:14.062Z,11.88
2018-05-02T00:50:14.065Z,11.83
2018-05-02T00:51:14.060Z,11.93
2018-05-02T00:52:14.058Z,11.93
2018-05-02T00:53:14.058Z,11.88
2018-05-02T00:54:14.057Z,11.88
2018-05-02T00:55:14.057Z,11.80
2018-05-02T00:56:14.054Z,11.80
2018-05-02T00:57:14.053Z,11.93
2018-05-02T00:58:14.053Z,11.85
2018-05-02T00:59:14.052Z,11.96
2018-05-02T01:00:14.051Z,11.93
2018-05-02T01:01:14.049Z,11.88
2018-05-02T01:02:14.050Z,11.91
2018-05-02T01:03:14.048Z,11.91
2018-05-02T01:04:14.046Z,11.95
2018-05-02T01:05:14.046Z,12.03
2018-05-02T01:06:14.044Z,11.96
2018-05-02T01:07:14.044Z,11.93
2018-05-02T01:08:14.042Z,11.89
2018-05-02T01:09:14.041Z,11.91
2018-05-02T01:10:14.040Z,11.89
2018-05-02T01:11:14.038Z,11.85
2018-05-02T01:12:14.038Z,11.80
2018-05-02T01:13:14.037Z,11.83
2018-05-02T01:14:14.036Z,11.85
2018-05-02T01:15:14.035Z,11.85
2018-05-02T01:16:14.036Z,11.89
2018-05-02T01:17:14.033Z,11.86
2018-05-02T01:18:14.039Z,11.88
2018-05-02T01:19:14.033Z,11.91
2018-05-02T01:20:14.030Z,11.88
2018-05-02T01:21:14.028Z,11.91
2018-05-02T01:22:14.028Z,11.86
2018-05-02T01:23:14.033Z,11.89
2018-05-02T01:24:14.026Z,11.91
2018-05-02T01:25:14.025Z,11.88
2018-05-02T01:26:14.025Z,11.91
2018-05-02T01:27:14.025Z,11.89
2018-05-02T01:28:14.023Z,11.93
2018-05-02T01:29:14.021Z,11.89
2018-05-02T01:30:14.020Z,11.93
2018-05-02T01:31:14.020Z,11.91
2018-05-02T01:32:14.018Z,11.93
2018-05-02T01:33:14.017Z,11.96
2018-05-02T01:34:14.018Z,12.00
2018-05-02T01:35:14.016Z,11.88
2018-05-02T01:36:14.014Z,11.83
2018-05-02T01:37:14.014Z,11.88
2018-05-02T01:38:14.013Z,11.93
2018-05-02T01:39:14.012Z,11.95
2018-05-02T01:40:14.011Z,11.83
2018-05-02T01:41:14.014Z,11.77
2018-05-02T01:42:14.014Z,11.83
2018-05-02T01:43:14.009Z,11.81
2018-05-02T01:44:14.007Z,11.91
2018-05-02T01:45:14.007Z,11.89
2018-05-02T01:46:14.006Z,11.89
2018-05-02T01:47:14.005Z,11.89
2018-05-02T01:48:14.003Z,11.85
2018-05-02T01:49:14.003Z,11.85
2018-05-02T01:50:14.002Z,11.86
2018-05-02T01:51:14.001Z,11.85
2018-05-02T01:52:14.000Z,11.78
2018-05-02T01:53:13.999Z,11.81
2018-05-02T01:54:13.997Z,11.80
2018-05-02T01:55:13.997Z,11.86
2018-05-02T01:56:13.996Z,11.88
2018-05-02T01:57:13.996Z,11.81
2018-05-02T01:58:13.994Z,11.88
2018-05-02T01:59:13.993Z,11.85
2018-05-02T02:00:13.992Z,11.85
2018-05-02T02:01:13.993Z,11.88
2018-05-02T02:02:13.991Z,11.88
2018-05-02T02:03:13.990Z,11.96
2018-05-02T02:04:13.992Z,11.89
2018-05-02T02:05:13.988Z,11.83
2018-05-02T02:06:13.987Z,11.76
2018-05-02T02:07:13.987Z,11.67
2018-05-02T02:08:13.983Z,11.67
2018-05-02T02:09:13.984Z,11.62
2018-05-02T02:10:13.984Z,11.68
2018-05-02T02:11:13.982Z,11.68
2018-05-02T02:12:13.981Z,11.67
2018-05-02T02:13:13.981Z,11.70
2018-05-02T02:14:13.981Z,11.59
2018-05-02T02:15:13.978Z,11.65
2018-05-02T02:16:13.976Z,11.63
2018-05-02T02:17:13.977Z,11.68
2018-05-02T02:18:13.976Z,11.63
2018-05-02T02:19:13.974Z,11.67
2018-05-02T02:20:13.972Z,11.67
2018-05-02T02:21:13.973Z,11.59
2018-05-02T02:22:13.971Z,11.70
2018-05-02T02:23:13.971Z,11.59
2018-05-02T02:24:13.969Z,11.55
2018-05-02T02:25:13.967Z,11.60
2018-05-02T02:26:13.967Z,11.60
2018-05-02T02:27:13.972Z,11.49
2018-05-02T02:28:13.965Z,11.44
2018-05-02T02:29:13.963Z,11.41
2018-05-02T02:30:13.963Z,11.41
2018-05-02T02:31:13.968Z,11.34
2018-05-02T02:32:13.960Z,11.33
2018-05-02T02:33:13.959Z,11.26
2018-05-02T02:34:13.958Z,11.35
2018-05-02T02:35:13.957Z,11.33
2018-05-02T02:36:13.956Z,11.19
2018-05-02T02:37:13.956Z,11.26
2018-05-02T02:38:13.954Z,11.19
2018-05-02T02:39:13.954Z,11.25
2018-05-02T02:40:13.951Z,11.16
2018-05-02T02:41:13.950Z,11.07
2018-05-02T02:42:13.949Z,11.13
2018-05-02T02:43:13.949Z,11.10
2018-05-02T02:44:13.947Z,11.12
2018-05-02T02:45:13.946Z,11.10
2018-05-02T02:46:13.947Z,11.12
2018-05-02T02:47:13.943Z,11.10
2018-05-02T02:48:13.941Z,11.15
2018-05-02T02:49:13.940Z,11.01
2018-05-02T02:50:13.940Z,11.08
2018-05-02T02:51:13.942Z,11.05
2018-05-02T02:52:13.936Z,11.01
2018-05-02T02:53:13.938Z,11.04
2018-05-02T02:54:13.947Z,10.97
2018-05-02T02:55:14.004Z,11.02
2018-05-02T02:56:13.931Z,10.94
2018-05-02T02:57:13.931Z,10.87
2018-05-02T02:58:13.929Z,10.87
2018-05-02T02:59:13.928Z,10.92
2018-05-02T03:00:13.928Z,10.89
2018-05-02T03:01:13.924Z,10.86
2018-05-02T03:02:13.923Z,10.90
2018-05-02T03:03:13.922Z,10.90
2018-05-02T03:04:13.920Z,10.87
2018-05-02T03:05:13.918Z,10.86
2018-05-02T03:06:13.918Z,10.94
2018-05-02T03:07:13.916Z,10.92
2018-05-02T03:08:13.917Z,11.01
2018-05-02T03:09:13.914Z,10.92
2018-05-02T03:10:13.911Z,10.95
2018-05-02T03:11:13.915Z,11.01
2018-05-02T03:12:13.914Z,10.87
2018-05-02T03:13:13.907Z,10.94
2018-05-02T03:14:13.906Z,10.92
2018-05-02T03:15:13.905Z,10.87
2018-05-02T03:16:13.903Z,10.95
2018-05-02T03:17:13.900Z,10.87
2018-05-02T03:18:13.899Z,10.86
2018-05-02T03:19:13.899Z,10.77
2018-05-02T03:20:13.897Z,10.72
2018-05-02T03:21:13.894Z,10.77
2018-05-02T03:22:13.893Z,10.65
2018-05-02T03:23:13.893Z,10.75
2018-05-02T03:24:13.890Z,10.64
2018-05-02T03:25:13.891Z,10.59
2018-05-02T03:26:13.888Z,10.71
2018-05-02T03:27:13.888Z,10.64
2018-05-02T03:28:13.885Z,10.59
2018-05-02T03:29:13.882Z,10.67
2018-05-02T03:30:13.882Z,10.68
2018-05-02T03:31:13.880Z,10.59
2018-05-02T03:32:13.876Z,10.65
2018-05-02T03:33:13.879Z,10.64
2018-05-02T03:34:13.874Z,10.59
2018-05-02T03:35:13.873Z,10.61
2018-05-02T03:36:13.873Z,10.61
2018-05-02T03:37:13.870Z,10.59
2018-05-02T03:38:13.869Z,10.68
2018-05-02T03:39:13.866Z,10.61
2018-05-02T03:40:13.863Z,10.65
2018-05-02T03:41:13.865Z,10.65
2018-05-02T03:42:13.861Z,10.59
2018-05-02T03:43:13.860Z,10.65
2018-05-02T03:44:13.857Z,10.62
2018-05-02T03:45:13.857Z,10.64
2018-05-02T03:46:13.856Z,10.48
2018-05-02T03:47:13.858Z,10.57
2018-05-02T03:48:13.854Z,10.57
2018-05-02T03:49:13.853Z,10.53
2018-05-02T03:50:13.848Z,10.58
2018-05-02T03:51:13.847Z,10.51
2018-05-02T03:52:13.844Z,10.51
2018-05-02T03:53:13.844Z,10.49
2018-05-02T03:54:13.841Z,10.59
2018-05-02T03:55:13.839Z,10.53
2018-05-02T03:56:13.838Z,10.55
2018-05-02T03:57:13.824Z,10.45
2018-05-02T03:58:13.821Z,10.46
2018-05-02T03:59:13.821Z,10.46
2018-05-02T04:00:13.819Z,10.36
2018-05-02T04:01:13.816Z,10.38
2018-05-02T04:02:13.815Z,10.49
2018-05-02T04:03:13.813Z,10.46
2018-05-02T04:04:13.812Z,10.46
2018-05-02T04:05:13.809Z,10.39
2018-05-02T04:06:13.807Z,10.45
2018-05-02T04:07:13.807Z,10.49
2018-05-02T04:08:13.803Z,10.42
2018-05-02T04:09:13.801Z,10.46
2018-05-02T04:10:13.801Z,10.45
2018-05-02T04:11:13.799Z,10.55
2018-05-02T04:12:13.796Z,10.42
2018-05-02T04:13:13.795Z,10.43
2018-05-02T04:14:13.794Z,10.36
2018-05-02T04:15:13.793Z,10.49
2018-05-02T04:16:13.791Z,10.42
2018-05-02T04:17:13.787Z,10.39
2018-05-02T04:18:13.787Z,10.51
2018-05-02T04:19:13.784Z,10.41
2018-05-02T04:20:13.782Z,10.49
2018-05-02T04:21:13.781Z,10.48
2018-05-02T04:22:13.780Z,10.38
2018-05-02T04:23:13.778Z,10.42
2018-05-02T04:24:13.775Z,10.38
2018-05-02T04:25:13.772Z,10.39
2018-05-02T04:26:13.829Z,10.43
2018-05-02T04:27:13.769Z,10.48
2018-05-02T04:28:13.767Z,10.58
2018-05-02T04:29:13.765Z,10.49
2018-05-02T04:30:13.764Z,10.53
2018-05-02T04:31:13.764Z,10.58
2018-05-02T04:32:13.761Z,10.62
2018-05-02T04:33:13.759Z,10.61
2018-05-02T04:34:13.757Z,10.64
2018-05-02T04:35:13.756Z,10.62
2018-05-02T04:36:13.753Z,10.68
2018-05-02T04:37:13.752Z,10.58
2018-05-02T04:38:13.750Z,10.57
2018-05-02T04:39:13.749Z,10.68
2018-05-02T04:40:13.747Z,10.65
2018-05-02T04:41:13.748Z,10.59
2018-05-02T04:42:13.743Z,10.67
2018-05-02T04:43:13.742Z,10.64
2018-05-02T04:44:13.740Z,10.59
2018-05-02T04:45:13.738Z,10.71
2018-05-02T04:46:13.738Z,10.69
2018-05-02T04:47:13.736Z,10.69
2018-05-02T04:48:13.732Z,10.69
2018-05-02T04:49:13.731Z,10.69
2018-05-02T04:50:13.731Z,10.65
2018-05-02T04:51:13.727Z,10.67
2018-05-02T04:52:13.728Z,10.68
2018-05-02T04:53:13.725Z,10.68
2018-05-02T04:54:13.723Z,10.69
2018-05-02T04:55:13.721Z,10.71
2018-05-02T04:56:13.720Z,10.65
2018-05-02T04:57:13.718Z,10.59
2018-05-02T04:58:13.717Z,10.59
2018-05-02T04:59:13.716Z,10.68
2018-05-02T05:00:13.713Z,10.58
2018-05-02T05:01:13.711Z,10.69
2018-05-02T05:02:13.709Z,10.76
2018-05-02T05:03:13.709Z,10.77
2018-05-02T05:04:13.706Z,10.86
2018-05-02T05:05:13.706Z,10.89
2018-05-02T05:06:13.704Z,10.89
2018-05-02T05:07:13.702Z,10.89
2018-05-02T05:08:13.703Z,10.86
2018-05-02T05:09:13.700Z,10.86
2018-05-02T05:10:13.697Z,10.97
2018-05-02T05:11:13.697Z,10.84
2018-05-02T05:12:13.718Z,10.83
2018-05-02T05:13:13.693Z,10.84
2018-05-02T05:14:13.690Z,10.80
2018-05-02T05:15:13.689Z,10.79
2018-05-02T05:16:13.693Z,10.77
2018-05-02T05:17:13.687Z,10.76
2018-05-02T05:18:13.685Z,10.76
2018-05-02T05:19:13.683Z,10.76
2018-05-02T05:20:13.683Z,10.76
2018-05-02T05:21:13.681Z,10.75
2018-05-02T05:22:13.680Z,10.75
2018-05-02T05:23:13.679Z,10.71
2018-05-02T05:24:13.675Z,10.82
2018-05-02T05:25:13.674Z,10.79
2018-05-02T05:26:13.673Z,10.83
2018-05-02T05:27:13.673Z,10.79
2018-05-02T05:28:13.745Z,10.80
2018-05-02T05:29:13.668Z,10.72
2018-05-02T05:30:13.668Z,10.71
2018-05-02T05:31:13.666Z,10.71
2018-05-02T05:32:13.672Z,10.71
2018-05-02T05:33:13.662Z,10.76
2018-05-02T05:34:13.662Z,10.69
2018-05-02T05:35:13.705Z,10.64
2018-05-02T05:36:13.658Z,10.69
2018-05-02T05:37:13.656Z,10.57
2018-05-02T05:38:13.657Z,10.64
2018-05-02T05:39:13.725Z,10.68
2018-05-02T05:40:13.652Z,10.68
2018-05-02T05:41:13.651Z,10.75
2018-05-02T05:42:13.649Z,10.79
2018-05-02T05:43:13.649Z,10.84
2018-05-02T05:44:13.645Z,10.82
2018-05-02T05:45:13.683Z,10.79
2018-05-02T05:46:13.683Z,10.86
2018-05-02T05:47:13.701Z,10.95
2018-05-02T05:48:13.641Z,11.01
2018-05-02T05:49:13.640Z,10.98
2018-05-02T05:50:13.637Z,11.05
2018-05-02T05:51:13.637Z,11.04
2018-05-02T05:52:13.636Z,11.04
2018-05-02T05:53:13.636Z,11.12
2018-05-02T05:54:13.720Z,10.98
2018-05-02T05:55:13.659Z,11.08
2018-05-02T05:56:13.628Z,11.05
2018-05-02T05:57:13.628Z,10.97
2018-05-02T05:58:13.627Z,11.02
2018-05-02T05:59:13.625Z,11.01
2018-05-02T06:00:13.624Z,11.00
2018-05-02T06:01:13.621Z,11.02
2018-05-02T06:02:13.621Z,11.05
2018-05-02T06:03:13.622Z,11.12
2018-05-02T06:04:13.618Z,11.12
2018-05-02T06:05:13.636Z,11.05
2018-05-02T06:06:13.616Z,11.07
2018-05-02T06:07:13.615Z,11.04
2018-05-02T06:08:13.624Z,11.07
2018-05-02T06:09:13.772Z,11.16
2018-05-02T06:10:13.611Z,11.30
2018-05-02T06:11:13.610Z,11.34
2018-05-02T06:12:13.610Z,11.34
2018-05-02T06:13:13.607Z,11.37
2018-05-02T06:14:13.605Z,11.35
2018-05-02T06:15:13.605Z,11.33
2018-05-02T06:16:13.604Z,11.38
2018-05-02T06:17:13.602Z,11.34
2018-05-02T06:18:13.600Z,11.40
2018-05-02T06:19:13.601Z,11.40
2018-05-02T06:20:13.599Z,11.30
2018-05-02T06:21:13.597Z,11.34
2018-05-02T06:22:13.595Z,11.37
2018-05-02T06:23:13.596Z,11.38
2018-05-02T06:24:13.593Z,11.38
2018-05-02T06:25:13.592Z,11.44
2018-05-02T06:26:13.603Z,11.45
2018-05-02T06:27:13.592Z,11.43
2018-05-02T06:28:13.591Z,11.48
2018-05-02T06:29:13.595Z,11.37
2018-05-02T06:30:13.589Z,11.40
2018-05-02T06:31:13.588Z,11.45
2018-05-02T06:32:13.585Z,11.38
2018-05-02T06:33:13.586Z,11.40
2018-05-02T06:34:13.583Z,11.37
2018-05-02T06:35:13.584Z,11.34
2018-05-02T06:36:13.581Z,11.35
2018-05-02T06:37:13.585Z,11.44
2018-05-02T06:38:13.579Z,11.48
2018-05-02T06:39:13.580Z,11.45
2018-05-02T06:40:13.576Z,11.38
2018-05-02T06:41:13.580Z,11.27
2018-05-02T06:42:13.574Z,11.18
2018-05-02T06:43:13.576Z,11.10
2018-05-02T06:44:13.572Z,11.01
2018-05-02T06:45:13.572Z,10.92
2018-05-02T06:46:13.578Z,10.89
2018-05-02T06:47:13.569Z,10.87
2018-05-02T06:48:13.569Z,10.97
2018-05-02T06:49:13.595Z,11.08
2018-05-02T06:50:13.647Z,11.18
2018-05-02T06:51:13.569Z,11.38
2018-05-02T06:52:13.565Z,11.43
2018-05-02T06:53:13.565Z,11.43
2018-05-02T06:54:13.563Z,11.43
2018-05-02T06:55:13.563Z,11.60
2018-05-02T06:56:13.562Z,11.68
2018-05-02T06:57:13.560Z,11.85
2018-05-02T06:58:13.560Z,12.00
2018-05-02T06:59:13.560Z,12.25
2018-05-02T07:00:13.561Z,12.69
2018-05-02T07:01:13.561Z,13.05
2018-05-02T07:02:13.562Z,13.45
2018-05-02T07:03:13.564Z,13.70
2018-05-02T07:04:13.566Z,13.93
2018-05-02T07:05:13.566Z,14.04
2018-05-02T07:06:13.569Z,14.07
2018-05-02T07:07:13.629Z,13.54
2018-05-02T07:08:13.574Z,13.26
2018-05-02T07:09:13.576Z,13.13
2018-05-02T07:10:13.578Z,12.80
2018-05-02T07:11:13.581Z,12.48
2018-05-02T07:12:13.581Z,12.18
2018-05-02T07:13:13.583Z,12.00
2018-05-02T07:14:13.586Z,11.91
2018-05-02T07:15:13.601Z,11.88
2018-05-02T07:16:13.588Z,11.68
2018-05-02T07:17:13.588Z,11.58
2018-05-02T07:18:13.590Z,11.60
2018-05-02T07:19:13.591Z,11.51
2018-05-02T07:20:13.590Z,11.56
2018-05-02T07:21:13.592Z,11.44
2018-05-02T07:22:13.592Z,11.48
2018-05-02T07:23:13.596Z,11.53
2018-05-02T07:24:13.593Z,11.49
2018-05-02T07:25:13.593Z,11.58
2018-05-02T07:26:13.591Z,11.60
2018-05-02T07:27:13.592Z,11.76
2018-05-02T07:28:13.592Z,11.86
2018-05-02T07:29:13.591Z,11.93
2018-05-02T07:30:13.611Z,12.07
2018-05-02T07:31:13.593Z,12.23
2018-05-02T07:32:13.590Z,12.17
2018-05-02T07:33:13.592Z,12.02
2018-05-02T07:34:13.591Z,11.93
2018-05-02T07:35:13.591Z,12.10
2018-05-02T07:36:13.589Z,12.03
2018-05-02T07:37:13.590Z,12.20
2018-05-02T07:38:13.590Z,12.28
2018-05-02T07:39:13.682Z,12.17
2018-05-02T07:40:13.588Z,12.15
2018-05-02T07:41:13.600Z,12.23
2018-05-02T07:42:13.597Z,12.29
2018-05-02T07:43:13.610Z,12.07
2018-05-02T07:44:13.587Z,12.07
2018-05-02T07:45:13.586Z,11.99
2018-05-02T07:46:13.585Z,11.85
2018-05-02T07:47:13.584Z,11.81
2018-05-02T07:48:13.590Z,11.83
2018-05-02T07:49:13.871Z,11.71
2018-05-02T07:50:13.585Z,11.73
2018-05-02T07:51:13.583Z,11.76
2018-05-02T07:52:13.584Z,11.93
2018-05-02T07:53:13.582Z,12.08
2018-05-02T07:54:13.581Z,12.29
2018-05-02T07:55:13.581Z,12.62
2018-05-02T07:56:13.584Z,13.03
2018-05-02T07:57:13.579Z,13.20
2018-05-02T07:58:13.580Z,13.54
2018-05-02T07:59:13.580Z,13.31
2018-05-02T08:00:13.581Z,13.21
2018-05-02T08:01:13.581Z,12.80
2018-05-02T08:02:13.583Z,12.66
2018-05-02T08:03:13.586Z,12.72
2018-05-02T08:04:13.801Z,12.66
2018-05-02T08:05:13.584Z,12.80
2018-05-02T08:06:13.586Z,12.81
2018-05-02T08:07:13.590Z,12.94
2018-05-02T08:08:13.592Z,13.02
2018-05-02T08:09:13.588Z,13.16
2018-05-02T08:10:13.590Z,13.08
2018-05-02T08:11:13.588Z,13.05
2018-05-02T08:12:13.587Z,13.08
2018-05-02T08:13:13.589Z,12.99
2018-05-02T08:14:13.591Z,12.80
2018-05-02T08:15:13.590Z,12.78
2018-05-02T08:16:13.594Z,12.83
2018-05-02T08:17:13.591Z,12.81
2018-05-02T08:18:13.622Z,12.81
2018-05-02T08:19:13.592Z,12.81
2018-05-02T08:20:13.591Z,12.58
2018-05-02T08:21:13.596Z,12.55
2018-05-02T08:22:13.623Z,12.57
2018-05-02T08:23:13.931Z,12.63
2018-05-02T08:24:13.591Z,12.78
2018-05-02T08:25:13.626Z,12.83
2018-05-02T08:26:13.595Z,12.90
2018-05-02T08:27:13.593Z,12.95
2018-05-02T08:28:13.592Z,12.99
2018-05-02T08:29:13.594Z,13.09
2018-05-02T08:30:13.593Z,13.12
2018-05-02T08:31:13.593Z,12.88
2018-05-02T08:32:13.675Z,12.91
2018-05-02T08:33:13.594Z,13.03
2018-05-02T08:34:13.594Z,13.05
2018-05-02T08:35:13.594Z,13.01
2018-05-02T08:36:13.601Z,12.83
2018-05-02T08:37:13.598Z,12.81
2018-05-02T08:38:13.599Z,12.73
2018-05-02T08:39:13.593Z,12.81
2018-05-02T08:40:13.594Z,12.78
2018-05-02T08:41:13.593Z,12.95
2018-05-02T08:42:13.593Z,13.06
2018-05-02T08:43:13.595Z,13.02
2018-05-02T08:44:13.593Z,12.98
2018-05-02T08:45:13.593Z,12.91
2018-05-02T08:46:13.595Z,12.76
2018-05-02T08:47:13.593Z,12.75
2018-05-02T08:48:13.592Z,12.62
2018-05-02T08:49:13.594Z,12.62
2018-05-02T08:50:13.594Z,12.57
2018-05-02T08:51:13.594Z,12.50
2018-05-02T08:52:13.595Z,12.51
2018-05-02T08:53:13.614Z,12.43
2018-05-02T08:54:13.641Z,12.45
2018-05-02T08:55:13.593Z,12.57
2018-05-02T08:56:13.592Z,12.75
2018-05-02T08:57:13.593Z,12.90
2018-05-02T08:58:13.595Z,12.87
2018-05-02T08:59:13.592Z,12.69
2018-05-02T09:00:13.593Z,12.65
2018-05-02T09:01:13.592Z,12.62
2018-05-02T09:02:13.591Z,12.61
2018-05-02T09:03:13.590Z,12.80
2018-05-02T09:04:13.854Z,12.95
2018-05-02T09:05:13.678Z,12.95
2018-05-02T09:06:13.591Z,13.17
2018-05-02T09:07:13.591Z,13.24
2018-05-02T09:08:13.590Z,13.27
2018-05-02T09:09:13.590Z,13.40
2018-05-02T09:10:13.678Z,13.52
2018-05-02T09:11:13.591Z,13.57
2018-05-02T09:12:13.601Z,13.67
2018-05-02T09:13:13.590Z,13.78
2018-05-02T09:14:13.591Z,13.73
2018-05-02T09:15:13.594Z,13.82
2018-05-02T09:16:13.591Z,13.85
2018-05-02T09:17:13.592Z,13.93
2018-05-02T09:18:13.592Z,13.94
2018-05-02T09:19:13.591Z,14.12
2018-05-02T09:20:13.592Z,14.12
2018-05-02T09:21:13.593Z,14.16
2018-05-02T09:22:13.593Z,14.23
2018-05-02T09:23:13.594Z,14.19
2018-05-02T09:24:13.596Z,14.20
2018-05-02T09:25:13.594Z,14.11
2018-05-02T09:26:13.596Z,14.16
2018-05-02T09:27:13.601Z,14.15
2018-05-02T09:28:13.596Z,14.05
2018-05-02T09:29:13.597Z,14.15
2018-05-02T09:30:13.598Z,14.20
2018-05-02T09:31:13.598Z,14.20
2018-05-02T09:32:13.599Z,14.30
2018-05-02T09:33:13.600Z,14.18
2018-05-02T09:34:13.606Z,14.22
2018-05-02T09:35:13.601Z,14.15
2018-05-02T09:36:13.602Z,14.33
2018-05-02T09:37:13.602Z,14.26
2018-05-02T09:38:13.604Z,14.33
2018-05-02T09:39:13.605Z,14.43
2018-05-02T09:40:13.604Z,14.37
2018-05-02T09:41:13.605Z,14.36
2018-05-02T09:42:13.607Z,14.45
2018-05-02T09:43:13.608Z,14.58
2018-05-02T09:44:13.778Z,14.48
2018-05-02T09:45:13.613Z,14.58
2018-05-02T09:46:13.610Z,14.44
2018-05-02T09:47:13.612Z,14.25
2018-05-02T09:48:13.617Z,14.33
2018-05-02T09:49:13.615Z,14.34
2018-05-02T09:50:13.618Z,14.34
2018-05-02T09:51:13.618Z,14.51
2018-05-02T09:52:13.617Z,14.58
2018-05-02T09:53:13.618Z,14.67
2018-05-02T09:54:13.621Z,14.66
2018-05-02T09:55:13.625Z,14.68
2018-05-02T09:56:13.623Z,14.62
2018-05-02T09:57:13.627Z,14.45
2018-05-02T09:58:13.679Z,14.52
2018-05-02T09:59:13.628Z,14.63
2018-05-02T10:00:13.633Z,14.62
2018-05-02T10:01:13.628Z,14.52
2018-05-02T10:02:13.692Z,14.52
2018-05-02T10:03:13.653Z,14.48
2018-05-02T10:04:13.667Z,14.59
2018-05-02T10:05:13.634Z,14.44
2018-05-02T10:06:13.637Z,14.55
2018-05-02T10:07:13.638Z,14.66
2018-05-02T10:08:13.639Z,14.63
2018-05-02T10:09:13.639Z,14.71
2018-05-02T10:10:13.642Z,14.82
2018-05-02T10:11:13.643Z,14.78
2018-05-02T10:12:13.644Z,14.81
2018-05-02T10:13:13.647Z,14.97
2018-05-02T10:14:13.652Z,15.08
2018-05-02T10:15:13.649Z,15.12
2018-05-02T10:16:13.652Z,15.26
2018-05-02T10:17:13.653Z,15.41
2018-05-02T10:18:13.657Z,15.33
2018-05-02T10:19:13.658Z,15.43
2018-05-02T10:20:13.660Z,15.35
2018-05-02T10:21:13.663Z,15.22
2018-05-02T10:22:13.666Z,15.32
2018-05-02T10:23:13.668Z,15.36
2018-05-02T10:24:13.671Z,15.55
2018-05-02T10:25:13.672Z,15.44
2018-05-02T10:26:13.680Z,15.33
2018-05-02T10:27:13.678Z,15.35
2018-05-02T10:28:13.680Z,15.14
2018-05-02T10:29:13.682Z,15.32
2018-05-02T10:30:13.697Z,15.39
2018-05-02T10:31:13.688Z,15.43
2018-05-02T10:32:13.689Z,15.57
2018-05-02T10:33:13.724Z,15.66
2018-05-02T10:34:13.695Z,15.66
2018-05-02T10:35:13.695Z,15.69
2018-05-02T10:36:13.702Z,15.75
2018-05-02T10:37:13.700Z,15.87
2018-05-02T10:38:13.702Z,15.84
2018-05-02T10:39:13.704Z,15.80
2018-05-02T10:40:13.714Z,15.73
2018-05-02T10:41:13.710Z,15.66
2018-05-02T10:42:13.936Z,15.81
2018-05-02T10:43:13.747Z,15.85
2018-05-02T10:44:13.728Z,15.83
2018-05-02T10:45:13.717Z,15.83
2018-05-02T10:46:13.721Z,15.81
2018-05-02T10:47:13.928Z,15.75
2018-05-02T10:48:13.726Z,15.72
2018-05-02T10:49:13.727Z,15.57
2018-05-02T10:50:13.731Z,15.44
2018-05-02T10:51:13.734Z,15.47
2018-05-02T10:52:13.736Z,15.59
2018-05-02T10:53:13.738Z,15.70
2018-05-02T10:54:13.743Z,15.90
2018-05-02T10:55:13.744Z,16.10
2018-05-02T10:56:13.825Z,16.26
2018-05-02T10:57:13.749Z,16.34
2018-05-02T10:58:13.753Z,16.40
2018-05-02T10:59:13.755Z,16.41
2018-05-02T11:00:13.756Z,16.49
2018-05-02T11:01:13.758Z,16.51
2018-05-02T11:02:13.806Z,16.62
2018-05-02T11:03:13.766Z,16.51
2018-05-02T11:04:13.768Z,16.49
2018-05-02T11:05:13.770Z,16.41
2018-05-02T11:06:13.772Z,16.09
2018-05-02T11:07:13.779Z,15.94
2018-05-02T11:08:13.777Z,16.06
2018-05-02T11:09:13.781Z,16.17
2018-05-02T11:10:13.783Z,16.32
2018-05-02T11:11:13.786Z,16.39
2018-05-02T11:12:13.787Z,16.58
2018-05-02T11:13:13.792Z,16.54
2018-05-02T11:14:13.793Z,16.57
2018-05-02T11:15:13.796Z,16.41
2018-05-02T11:16:13.799Z,16.32
2018-05-02T11:17:13.803Z,16.13
2018-05-02T11:18:13.804Z,16.02
2018-05-02T11:19:13.809Z,15.96
2018-05-02T11:20:13.957Z,16.00
2018-05-02T11:21:13.813Z,15.94
2018-05-02T11:22:13.819Z,16.10
2018-05-02T11:23:13.819Z,16.10
2018-05-02T11:24:13.820Z,16.08
2018-05-02T11:25:13.823Z,15.94
2018-05-02T11:26:13.829Z,15.92
2018-05-02T11:27:13.828Z,15.96
2018-05-02T11:28:13.828Z,16.08
2018-05-02T11:29:13.833Z,16.03
2018-05-02T11:30:13.835Z,16.18
2018-05-02T11:31:13.839Z,16.29
2018-05-02T11:32:13.839Z,16.28
2018-05-02T11:33:13.903Z,16.34
2018-05-02T11:34:13.843Z,16.40
2018-05-02T11:35:13.848Z,16.41
2018-05-02T11:36:13.848Z,16.54
2018-05-02T11:37:13.851Z,16.46
2018-05-02T11:38:13.855Z,16.44
2018-05-02T11:39:13.857Z,16.55
2018-05-02T11:40:13.863Z,16.74
2018-05-02T11:41:13.861Z,16.80
2018-05-02T11:42:13.866Z,16.98
2018-05-02T11:43:13.869Z,17.09
2018-05-02T11:44:13.974Z,17.39
2018-05-02T11:45:13.875Z,17.41
2018-05-02T11:46:13.881Z,17.54
2018-05-02T11:47:13.881Z,17.66
2018-05-02T11:48:13.885Z,17.93
2018-05-02T11:49:13.887Z,17.84
2018-05-02T11:50:13.893Z,17.71
2018-05-02T11:51:13.897Z,17.68
2018-05-02T11:52:14.125Z,17.76
2018-05-02T11:53:14.321Z,17.76
2018-05-02T11:54:14.158Z,17.98
2018-05-02T11:55:13.912Z,17.97
2018-05-02T11:56:13.916Z,18.03
2018-05-02T11:57:13.921Z,18.13
2018-05-02T11:58:13.924Z,17.98
2018-05-02T11:59:13.930Z,18.09
2018-05-02T12:00:13.933Z,17.91
2018-05-02T12:01:13.938Z,17.66
2018-05-02T12:02:13.957Z,17.53
2018-05-02T12:03:14.356Z,17.42
2018-05-02T12:04:14.072Z,17.52
2018-05-02T12:05:13.959Z,17.73
2018-05-02T12:06:13.960Z,17.94
2018-05-02T12:07:13.965Z,17.93
2018-05-02T12:08:13.989Z,17.72
2018-05-02T12:09:14.224Z,17.49
2018-05-02T12:10:13.978Z,17.42
2018-05-02T12:11:13.983Z,17.30
2018-05-02T12:12:13.987Z,17.19
2018-05-02T12:13:13.991Z,17.16
2018-05-02T12:14:13.995Z,17.05
2018-05-02T12:15:14.000Z,17.23
2018-05-02T12:16:14.002Z,17.50
2018-05-02T12:17:14.007Z,17.82
2018-05-02T12:18:14.011Z,17.98
2018-05-02T12:19:14.016Z,18.00
2018-05-02T12:20:14.018Z,18.15
2018-05-02T12:21:14.083Z,18.45
2018-05-02T12:22:14.029Z,18.76
2018-05-02T12:23:14.034Z,18.98
2018-05-02T12:24:14.037Z,19.32
2018-05-02T12:25:14.044Z,19.48
2018-05-02T12:26:14.050Z,19.78
2018-05-02T12:27:14.055Z,19.97
2018-05-02T12:28:14.059Z,20.12
2018-05-02T12:29:14.067Z,20.10
2018-05-02T12:30:14.071Z,20.00
2018-05-02T12:31:14.078Z,19.78
2018-05-02T12:32:14.083Z,19.62
2018-05-02T12:33:14.089Z,19.52
2018-05-02T12:34:14.095Z,19.49
2018-05-02T12:35:14.103Z,19.38
2018-05-02T12:36:14.107Z,19.09
2018-05-02T12:37:14.112Z,18.89
2018-05-02T12:38:14.118Z,18.63
2018-05-02T12:39:14.125Z,18.53
2018-05-02T12:40:14.130Z,18.58
2018-05-02T12:41:14.136Z,18.74
2018-05-02T12:42:14.141Z,18.96
2018-05-02T12:43:14.148Z,19.26
2018-05-02T12:44:14.153Z,19.52
2018-05-02T12:45:14.244Z,19.66
2018-05-02T12:46:14.165Z,19.90
2018-05-02T12:47:14.170Z,19.79
2018-05-02T12:48:14.175Z,19.84
2018-05-02T12:49:14.181Z,20.02
2018-05-02T12:50:14.193Z,20.00
2018-05-02T12:51:14.195Z,19.96
2018-05-02T12:52:14.199Z,19.87